createdAt,value
2018-02-15T00:01:52.826Z,27.55
2018-02-15T00:04:20.303Z,25.80
2018-02-15T00:06:47.752Z,29.30
2018-02-15T00:09:15.293Z,25.60
2018-02-15T00:11:42.758Z,27.60
2018-02-15T00:14:10.210Z,25.37
2018-02-15T00:16:37.678Z,25.40
2018-02-15T00:19:05.517Z,28.25
2018-02-15T00:21:32.949Z,28.15
2018-02-15T00:24:00.400Z,25.65
2018-02-15T00:26:28.622Z,27.13
2018-02-15T00:28:56.054Z,24.80
2018-02-15T00:31:23.637Z,26.25
2018-02-15T00:33:51.067Z,25.58
2018-02-15T00:36:18.510Z,25.17
2018-02-15T00:38:45.986Z,25.08
2018-02-15T00:41:13.481Z,25.45
2018-02-15T00:43:40.917Z,24.33
2018-02-15T00:46:08.366Z,23.92
2018-02-15T00:48:35.804Z,23.20
2018-02-15T00:51:03.233Z,24.08
2018-02-15T00:53:31.458Z,25.12
2018-02-15T00:55:58.908Z,23.60
2018-02-15T00:58:26.334Z,25.40
2018-02-15T01:00:53.766Z,23.65
2018-02-15T01:03:21.294Z,26.33
2018-02-15T01:05:48.950Z,25.17
2018-02-15T01:08:16.382Z,27.95
2018-02-15T01:10:43.863Z,24.33
2018-02-15T01:13:11.305Z,25.15
2018-02-15T01:15:38.760Z,25.08
2018-02-15T01:18:06.332Z,23.20
2018-02-15T01:20:33.785Z,26.42
2018-02-15T01:23:01.258Z,24.63
2018-02-15T01:25:28.685Z,24.12
2018-02-15T01:27:56.125Z,24.80
2018-02-15T01:30:23.558Z,25.65
2018-02-15T01:32:51.061Z,25.37
2018-02-15T01:35:18.534Z,24.75
2018-02-15T01:37:45.977Z,25.98
2018-02-15T01:40:13.429Z,25.98
2018-02-15T01:42:41.023Z,25.70
2018-02-15T01:45:08.657Z,25.67
2018-02-15T01:47:36.211Z,29.85
2018-02-15T01:50:04.348Z,24.87
2018-02-15T01:52:31.937Z,28.38
2018-02-15T01:54:59.397Z,28.08
2018-02-15T01:57:26.852Z,24.85
2018-02-15T01:59:54.282Z,26.15
2018-02-15T02:02:21.871Z,24.92
2018-02-15T02:04:49.310Z,25.83
2018-02-15T02:07:16.743Z,24.08
2018-02-15T02:09:44.181Z,25.02
2018-02-15T02:12:12.385Z,32.72
2018-02-15T02:14:39.869Z,25.08
2018-02-15T02:17:07.321Z,26.62
2018-02-15T02:19:34.747Z,26.70
2018-02-15T02:22:02.241Z,25.98
2018-02-15T02:26:33.554Z,26.23
2018-02-15T02:29:01.765Z,25.75
2018-02-15T02:31:29.221Z,24.57
2018-02-15T02:33:56.684Z,25.62
2018-02-15T02:36:24.099Z,26.00
2018-02-15T02:38:51.602Z,28.87
2018-02-15T02:41:19.038Z,27.67
2018-02-15T02:43:46.517Z,25.67
2018-02-15T02:46:14.039Z,26.85
2018-02-15T02:48:41.478Z,26.15
2018-02-15T02:51:09.719Z,27.30
2018-02-15T02:53:37.159Z,24.70
2018-02-15T02:56:04.590Z,27.77
2018-02-15T02:58:32.057Z,25.60
2018-02-15T03:00:59.623Z,24.98
2018-02-15T03:03:27.046Z,25.67
2018-02-15T03:05:54.529Z,25.35
2018-02-15T03:08:21.957Z,27.20
2018-02-15T03:10:49.453Z,25.27
2018-02-15T03:13:17.001Z,26.58
2018-02-15T03:15:44.445Z,25.15
2018-02-15T03:18:11.867Z,25.80
2018-02-15T03:20:40.086Z,25.23
2018-02-15T03:23:07.554Z,24.83
2018-02-15T03:25:35.010Z,27.02
2018-02-15T03:28:02.453Z,27.45
2018-02-15T03:30:29.886Z,29.15
2018-02-15T03:32:57.478Z,28.15
2018-02-15T03:35:24.920Z,27.50
2018-02-15T03:37:52.405Z,23.92
2018-02-15T03:40:19.957Z,26.52
2018-02-15T03:42:47.410Z,28.02
2018-02-15T03:45:14.883Z,25.50
2018-02-15T03:47:42.314Z,27.52
2018-02-15T03:50:09.750Z,28.10
2018-02-15T03:52:37.177Z,28.95
2018-02-15T03:55:05.398Z,25.75
2018-02-15T03:57:32.831Z,27.65
2018-02-15T04:00:00.278Z,25.75
2018-02-15T04:02:27.721Z,28.20
2018-02-15T04:04:55.921Z,27.95
2018-02-15T04:07:23.401Z,27.45
2018-02-15T04:09:50.863Z,28.23
2018-02-15T04:12:18.320Z,28.58
2018-02-15T04:14:45.785Z,31.77
2018-02-15T04:17:13.239Z,26.08
2018-02-15T04:19:40.674Z,25.92
2018-02-15T04:22:08.113Z,28.58
2018-02-15T04:24:35.594Z,26.15
2018-02-15T04:27:03.134Z,27.60
2018-02-15T04:29:30.557Z,26.25
2018-02-15T04:31:58.775Z,29.70
2018-02-15T04:34:26.201Z,27.95
2018-02-15T04:36:53.689Z,29.70
2018-02-15T04:39:21.181Z,25.58
2018-02-15T04:41:48.621Z,26.95
2018-02-15T04:44:16.056Z,29.52
2018-02-15T04:46:43.527Z,28.62
2018-02-15T04:49:10.970Z,31.92
2018-02-15T04:51:38.404Z,27.35
2018-02-15T04:54:05.903Z,35.30
2018-02-15T04:56:33.379Z,27.10
2018-02-15T04:59:00.860Z,28.70
2018-02-15T05:01:28.297Z,30.73
2018-02-15T05:03:56.517Z,28.83
2018-02-15T05:06:23.997Z,28.95
2018-02-15T05:08:51.451Z,30.15
2018-02-15T05:11:19.010Z,28.73
2018-02-15T05:13:46.457Z,27.73
2018-02-15T05:16:14.089Z,29.90
2018-02-15T05:18:41.557Z,31.75
2018-02-15T05:21:08.985Z,28.45
2018-02-15T05:23:37.221Z,29.17
2018-02-15T05:26:04.654Z,28.83
2018-02-15T05:28:32.080Z,27.90
2018-02-15T05:30:59.520Z,32.40
2018-02-15T05:33:27.832Z,28.48
2018-02-15T05:35:55.237Z,30.62
2018-02-15T05:38:22.673Z,28.00
2018-02-15T05:40:50.218Z,29.95
2018-02-15T05:43:17.655Z,31.80
2018-02-15T05:45:45.230Z,31.77
2018-02-15T05:48:12.757Z,31.00
2018-02-15T05:50:40.205Z,33.08
2018-02-15T05:53:08.415Z,28.80
2018-02-15T05:55:35.877Z,28.45
2018-02-15T05:58:03.313Z,27.00
2018-02-15T06:00:30.806Z,29.87
2018-02-15T06:02:58.239Z,28.92
2018-02-15T06:05:25.696Z,32.03
2018-02-15T06:07:53.135Z,30.88
2018-02-15T06:10:20.595Z,34.22
2018-02-15T06:12:48.043Z,28.45
2018-02-15T06:15:15.536Z,31.42
2018-02-15T06:17:42.965Z,29.12
2018-02-15T06:20:10.423Z,32.67
2018-02-15T06:22:37.901Z,33.05
2018-02-15T06:25:05.340Z,34.00
2018-02-15T06:27:32.836Z,31.87
2018-02-15T06:30:00.453Z,33.60
2018-02-15T06:32:27.877Z,32.20
2018-02-15T06:34:56.089Z,31.97
2018-02-15T06:37:23.537Z,29.60
2018-02-15T06:39:51.051Z,36.67
2018-02-15T06:42:18.463Z,34.10
2018-02-15T06:44:45.896Z,30.73
2018-02-15T06:47:13.321Z,31.63
2018-02-15T06:49:41.562Z,30.20
2018-02-15T06:52:09.015Z,34.40
2018-02-15T06:54:36.653Z,33.30
2018-02-15T06:57:04.150Z,32.60
2018-02-15T06:59:31.609Z,33.00
2018-02-15T07:01:59.051Z,32.70
2018-02-15T07:04:26.493Z,42.00
2018-02-15T07:06:53.980Z,33.00
2018-02-15T07:09:21.595Z,31.00
2018-02-15T07:11:49.153Z,34.55
2018-02-15T07:14:16.572Z,32.90
2018-02-15T07:19:19.438Z,32.38
2018-02-15T07:21:46.901Z,34.90
2018-02-15T07:24:14.334Z,34.40
2018-02-15T07:26:41.819Z,34.05
2018-02-15T07:29:10.050Z,34.55
2018-02-15T07:31:37.500Z,32.05
2018-02-15T07:34:04.994Z,35.05
2018-02-15T07:36:32.559Z,34.67
2018-02-15T07:39:00.004Z,30.60
2018-02-15T07:41:27.441Z,34.08
2018-02-15T07:43:54.866Z,32.72
2018-02-15T07:46:22.350Z,34.55
2018-02-15T07:48:49.764Z,33.38
2018-02-15T07:51:17.981Z,34.65
2018-02-15T07:53:45.406Z,35.35
2018-02-15T07:56:13.741Z,33.75
2018-02-15T07:58:41.162Z,34.90
2018-02-15T08:01:08.597Z,36.25
2018-02-15T08:03:36.839Z,36.63
2018-02-15T08:06:04.365Z,35.67
2018-02-15T08:08:31.828Z,32.00
2018-02-15T08:10:59.267Z,34.55
2018-02-15T08:13:26.689Z,32.88
2018-02-15T08:15:54.188Z,34.90
2018-02-15T08:18:21.635Z,37.03
2018-02-15T08:20:49.094Z,31.30
2018-02-15T08:23:16.545Z,38.22
2018-02-15T08:25:44.147Z,37.15
2018-02-15T08:28:11.682Z,29.60
2018-02-15T08:30:39.103Z,31.13
2018-02-15T08:33:07.333Z,32.50
2018-02-15T08:35:34.773Z,32.83
2018-02-15T08:38:02.248Z,35.30
2018-02-15T08:40:29.797Z,30.58
2018-02-15T08:42:57.262Z,31.43
2018-02-15T08:45:24.705Z,30.37
2018-02-15T08:47:52.271Z,30.60
2018-02-15T08:50:19.718Z,36.88
2018-02-15T08:52:47.206Z,33.00
2018-02-15T08:55:14.727Z,31.90
2018-02-15T08:57:42.264Z,27.62
2018-02-15T09:00:09.707Z,32.30
2018-02-15T09:02:37.158Z,26.75
2018-02-15T09:05:04.590Z,32.78
2018-02-15T09:07:32.054Z,32.40
2018-02-15T09:10:00.233Z,30.60
2018-02-15T09:12:27.740Z,28.52
2018-02-15T09:14:55.273Z,28.27
2018-02-15T09:17:22.728Z,30.48
2018-02-15T09:19:50.213Z,33.10
2018-02-15T09:22:17.703Z,27.27
2018-02-15T09:24:45.149Z,32.95
2018-02-15T09:27:12.579Z,30.00
2018-02-15T09:29:40.041Z,30.00
2018-02-15T09:32:07.492Z,32.67
2018-02-15T09:34:34.953Z,27.73
2018-02-15T09:37:02.405Z,30.25
2018-02-15T09:39:29.858Z,34.22
2018-02-15T09:41:57.351Z,30.15
2018-02-15T09:44:24.865Z,29.27
2018-02-15T09:46:52.332Z,31.83
2018-02-15T09:49:19.805Z,31.05
2018-02-15T09:51:47.272Z,30.45
2018-02-15T09:54:15.529Z,27.67
2018-02-15T09:56:42.982Z,31.67
2018-02-15T09:59:10.620Z,31.30
2018-02-15T10:01:38.203Z,31.33
2018-02-15T10:04:05.687Z,29.00
2018-02-15T10:06:33.906Z,29.77
2018-02-15T10:09:02.397Z,28.45
2018-02-15T10:11:29.886Z,31.50
2018-02-15T10:13:57.582Z,32.45
2018-02-15T10:16:25.231Z,33.47
2018-02-15T10:18:52.883Z,28.62
2018-02-15T10:21:20.596Z,29.83
2018-02-15T10:23:48.148Z,29.45
2018-02-15T10:26:15.585Z,29.75
2018-02-15T10:28:43.069Z,28.90
2018-02-15T10:31:10.749Z,30.17
2018-02-15T10:33:38.222Z,31.20
2018-02-15T10:36:05.736Z,30.85
2018-02-15T10:38:33.317Z,32.30
2018-02-15T10:41:00.755Z,32.67
2018-02-15T10:43:28.205Z,29.50
2018-02-15T10:45:55.649Z,28.50
2018-02-15T10:48:23.097Z,31.43
2018-02-15T10:50:51.334Z,29.40
2018-02-15T10:53:18.774Z,31.45
2018-02-15T10:55:46.979Z,30.10
2018-02-15T10:58:14.461Z,28.62
2018-02-15T11:00:48.509Z,31.52
2018-02-15T11:03:21.507Z,29.73
2018-02-15T11:05:48.965Z,30.05
2018-02-15T11:08:16.415Z,28.83
2018-02-15T11:10:43.969Z,30.25
2018-02-15T11:13:11.413Z,28.08
2018-02-15T11:15:39.363Z,28.83
2018-02-15T11:18:07.574Z,31.80
2018-02-15T11:20:35.033Z,29.17
2018-02-15T11:23:06.655Z,31.58
2018-02-15T11:25:35.199Z,27.45
2018-02-15T11:28:02.722Z,29.67
2018-02-15T11:30:30.158Z,30.70
2018-02-15T11:32:57.613Z,29.23
2018-02-15T11:35:25.054Z,28.70
2018-02-15T11:37:52.542Z,29.35
2018-02-15T11:40:19.976Z,29.40
2018-02-15T11:42:47.416Z,29.65
2018-02-15T11:45:14.890Z,26.30
2018-02-15T11:47:42.331Z,28.23
2018-02-15T11:50:09.818Z,30.30
2018-02-15T11:52:38.031Z,26.35
2018-02-15T11:55:05.502Z,27.20
2018-02-15T11:57:33.707Z,27.55
2018-02-15T12:00:01.156Z,26.70
2018-02-15T12:02:28.612Z,28.73
2018-02-15T12:04:56.071Z,126.27
2018-02-15T12:07:23.500Z,28.00
2018-02-15T12:09:51.733Z,27.87
2018-02-15T12:12:19.169Z,29.17
2018-02-15T12:14:46.623Z,29.02
2018-02-15T12:17:14.075Z,28.20
2018-02-15T12:19:41.636Z,32.70
2018-02-15T12:22:09.082Z,30.40
2018-02-15T12:24:36.553Z,31.77
2018-02-15T12:27:03.995Z,31.57
2018-02-15T12:29:31.440Z,30.43
2018-02-15T12:31:58.878Z,32.60
2018-02-15T12:34:27.200Z,31.87
2018-02-15T12:36:54.621Z,31.30
2018-02-15T12:39:22.086Z,31.42
2018-02-15T12:41:49.680Z,32.20
2018-02-15T12:44:17.111Z,32.63
2018-02-15T12:46:44.576Z,31.52
2018-02-15T12:49:12.137Z,32.03
2018-02-15T12:51:39.593Z,31.85
2018-02-15T12:54:07.040Z,32.78
2018-02-15T12:56:34.489Z,33.92
2018-02-15T12:59:01.952Z,33.63
2018-02-15T13:01:29.425Z,32.50
2018-02-15T13:03:56.886Z,34.67
2018-02-15T13:06:24.535Z,32.67
2018-02-15T13:08:51.990Z,34.35
2018-02-15T13:11:19.404Z,33.78
2018-02-15T13:13:46.838Z,33.08
2018-02-15T13:16:26.011Z,34.30
2018-02-15T13:19:05.318Z,34.17
2018-02-15T13:21:32.800Z,35.30
2018-02-15T13:24:00.254Z,34.70
2018-02-15T13:26:28.455Z,34.88
2018-02-15T13:28:55.926Z,34.22
2018-02-15T13:31:23.386Z,33.20
2018-02-15T13:33:50.850Z,34.20
2018-02-15T13:36:18.328Z,34.90
2018-02-15T13:38:45.777Z,35.03
2018-02-15T13:41:13.402Z,34.38
2018-02-15T13:43:40.840Z,35.30
2018-02-15T13:46:08.282Z,32.95
2018-02-15T13:48:36.528Z,36.55
2018-02-15T13:51:03.987Z,37.55
2018-02-15T13:53:31.430Z,34.45
2018-02-15T13:55:58.873Z,34.40
2018-02-15T13:58:26.316Z,36.25
2018-02-15T14:00:53.781Z,35.13
2018-02-15T14:03:21.228Z,35.40
2018-02-15T14:05:48.687Z,33.80
2018-02-15T14:08:16.122Z,34.28
2018-02-15T14:10:43.569Z,34.80
2018-02-15T14:13:11.042Z,36.10
2018-02-15T14:15:38.461Z,33.53
2018-02-15T14:18:06.729Z,33.72
2018-02-15T14:20:34.218Z,34.17
2018-02-15T14:23:01.720Z,34.20
2018-02-15T14:25:29.158Z,33.75
2018-02-15T14:27:56.608Z,33.15
2018-02-15T14:30:24.079Z,33.38
2018-02-15T14:32:51.515Z,36.08
2018-02-15T14:35:18.958Z,34.03
2018-02-15T14:37:46.390Z,35.20
2018-02-15T14:40:13.823Z,36.17
2018-02-15T14:42:41.589Z,36.00
2018-02-15T14:45:09.050Z,35.47
2018-02-15T14:47:36.493Z,35.67
2018-02-15T14:50:03.965Z,35.20
2018-02-15T14:52:31.405Z,35.55
2018-02-15T14:54:58.849Z,36.95
2018-02-15T14:57:26.313Z,37.70
2018-02-15T14:59:53.750Z,37.97
2018-02-15T15:02:21.185Z,37.38
2018-02-15T15:04:48.739Z,36.28
2018-02-15T15:07:16.220Z,37.67
2018-02-15T15:09:43.693Z,37.80
2018-02-15T15:12:11.185Z,39.05
2018-02-15T15:14:38.618Z,38.15
2018-02-15T15:17:06.058Z,37.28
2018-02-15T15:19:33.488Z,38.88
2018-02-15T15:22:00.946Z,38.42
2018-02-15T15:24:28.403Z,40.03
2018-02-15T15:26:55.863Z,41.13
2018-02-15T15:29:23.323Z,39.30
2018-02-15T15:31:50.782Z,42.25
2018-02-15T15:34:18.206Z,39.30
2018-02-15T15:36:45.680Z,41.88
2018-02-15T15:39:13.154Z,39.45
2018-02-15T15:41:40.628Z,40.33
2018-02-15T15:44:08.068Z,38.70
2018-02-15T15:46:35.510Z,38.83
2018-02-15T15:49:02.963Z,41.55
2018-02-15T15:51:30.438Z,39.13
2018-02-15T15:53:57.849Z,41.67
2018-02-15T15:56:26.161Z,41.33
2018-02-15T15:58:53.609Z,38.60
2018-02-15T16:01:21.174Z,38.10
2018-02-15T16:03:48.609Z,40.47
2018-02-15T16:06:16.063Z,40.45
2018-02-15T16:08:43.526Z,43.87
2018-02-15T16:11:12.862Z,39.27
2018-02-15T16:13:40.320Z,41.00
2018-02-15T16:16:07.785Z,40.12
2018-02-15T16:18:35.250Z,40.00
2018-02-15T16:21:02.689Z,41.57
2018-02-15T16:23:30.166Z,39.53
2018-02-15T16:25:57.628Z,39.80
2018-02-15T16:28:25.106Z,41.88
2018-02-15T16:30:52.565Z,45.75
2018-02-15T16:33:20.022Z,42.42
2018-02-15T16:35:47.491Z,44.38
2018-02-15T16:38:15.069Z,45.90
2018-02-15T16:40:42.513Z,44.63
2018-02-15T16:43:09.957Z,42.15
2018-02-15T16:45:37.436Z,42.72
2018-02-15T16:48:04.890Z,44.35
2018-02-15T16:50:32.355Z,45.17
2018-02-15T16:52:59.790Z,43.65
2018-02-15T16:55:27.226Z,47.00
2018-02-15T16:57:55.458Z,46.75
2018-02-15T17:00:23.832Z,47.38
2018-02-15T17:02:51.317Z,47.83
2018-02-15T17:05:18.787Z,46.90
2018-02-15T17:07:46.981Z,48.00
2018-02-15T17:10:14.448Z,49.28
2018-02-15T17:12:41.876Z,47.25
2018-02-15T17:15:10.185Z,51.20
2018-02-15T17:17:37.706Z,47.73
2018-02-15T17:20:05.926Z,51.70
2018-02-15T17:22:33.392Z,45.75
2018-02-15T17:25:00.818Z,48.47
2018-02-15T17:27:28.284Z,47.40
2018-02-15T17:29:55.761Z,47.90
2018-02-15T17:32:23.302Z,50.60
2018-02-15T17:34:50.737Z,47.40
2018-02-15T17:37:18.186Z,46.88
2018-02-15T17:39:45.642Z,48.10
2018-02-15T17:42:13.867Z,46.50
2018-02-15T17:44:41.326Z,45.67
2018-02-15T17:47:08.765Z,47.33
2018-02-15T17:49:36.206Z,50.50
2018-02-15T17:52:03.646Z,49.77
2018-02-15T17:54:31.234Z,48.50
2018-02-15T17:56:58.793Z,47.22
2018-02-15T17:59:26.247Z,45.42
2018-02-15T18:01:53.700Z,45.75
2018-02-15T18:04:21.174Z,48.53
2018-02-15T18:06:48.662Z,47.55
2018-02-15T18:09:16.094Z,46.85
2018-02-15T18:11:43.533Z,45.17
2018-02-15T18:14:11.383Z,48.92
2018-02-15T18:16:38.853Z,47.35
2018-02-15T18:19:06.266Z,47.10
2018-02-15T18:21:33.707Z,48.05
2018-02-15T18:24:01.137Z,45.55
2018-02-15T18:26:28.574Z,48.83
2018-02-15T18:28:56.249Z,48.58
2018-02-15T18:31:23.682Z,44.80
2018-02-15T18:33:51.153Z,43.72
2018-02-15T18:36:18.871Z,42.10
2018-02-15T18:38:46.324Z,43.20
2018-02-15T18:41:13.778Z,42.10
2018-02-15T18:43:45.339Z,45.17
2018-02-15T18:46:12.788Z,49.03
2018-02-15T18:48:40.302Z,46.95
2018-02-15T18:51:07.725Z,45.63
2018-02-15T18:53:35.158Z,46.10
2018-02-15T18:56:02.671Z,47.28
2018-02-15T18:58:30.089Z,46.13
2018-02-15T19:00:57.904Z,45.67
2018-02-15T19:03:25.364Z,47.22
2018-02-15T19:05:52.813Z,46.45
2018-02-15T19:08:20.250Z,46.83
2018-02-15T19:10:47.726Z,49.33
2018-02-15T19:13:15.161Z,50.35
2018-02-15T19:15:42.637Z,47.30
2018-02-15T19:18:10.099Z,56.88
2018-02-15T19:20:37.555Z,49.50
2018-02-15T19:23:05.030Z,50.40
2018-02-15T19:25:32.470Z,52.85
2018-02-15T19:27:59.935Z,48.80
2018-02-15T19:30:27.361Z,51.40
2018-02-15T19:32:54.801Z,52.80
2018-02-15T19:35:22.233Z,56.70
2018-02-15T19:37:50.453Z,56.47
2018-02-15T19:40:17.879Z,56.47
2018-02-15T19:42:46.086Z,65.45
2018-02-15T19:45:13.524Z,66.45
2018-02-15T19:47:40.981Z,68.00
2018-02-15T19:50:08.415Z,70.80
2018-02-15T19:52:36.655Z,71.05
2018-02-15T19:55:04.093Z,70.05
2018-02-15T19:57:32.317Z,69.18
2018-02-15T20:00:00.540Z,75.25
2018-02-15T20:02:27.982Z,74.47
2018-02-15T20:04:55.948Z,77.50
2018-02-15T20:07:23.414Z,77.87
2018-02-15T20:09:50.850Z,77.55
2018-02-15T20:12:18.282Z,72.93
2018-02-15T20:14:46.484Z,81.95
2018-02-15T20:17:13.949Z,78.43
2018-02-15T20:19:41.961Z,85.30
2018-02-15T20:22:09.421Z,87.30
2018-02-15T20:24:36.867Z,88.53
2018-02-15T20:30:03.929Z,90.22
2018-02-15T20:32:31.376Z,95.40
2018-02-15T20:34:58.814Z,91.57
2018-02-15T20:37:32.021Z,92.95
2018-02-15T20:40:05.198Z,99.62
2018-02-15T20:42:32.661Z,108.93
2018-02-15T20:45:00.110Z,105.12
2018-02-15T20:47:27.564Z,103.12
2018-02-15T20:50:00.579Z,99.82
2018-02-15T20:52:33.645Z,102.40
2018-02-15T20:55:06.914Z,102.07
2018-02-15T20:57:34.366Z,104.50
2018-02-15T21:00:02.583Z,95.87
2018-02-15T21:02:30.038Z,99.10
2018-02-15T21:04:57.490Z,101.78
2018-02-15T21:07:24.947Z,95.62
2018-02-15T21:09:52.410Z,103.45
2018-02-15T21:12:19.850Z,96.60
2018-02-15T21:14:47.294Z,103.87
2018-02-15T21:17:14.746Z,96.32
2018-02-15T21:19:42.193Z,91.97
2018-02-15T21:22:09.644Z,89.30
2018-02-15T21:24:37.864Z,98.93
2018-02-15T21:27:05.295Z,112.45
2018-02-15T21:29:32.732Z,94.47
2018-02-15T21:32:00.190Z,91.37
2018-02-15T21:34:27.649Z,95.03
2018-02-15T21:36:55.074Z,87.10
2018-02-15T21:39:22.573Z,88.80
2018-02-15T21:41:49.985Z,81.68
2018-02-15T21:44:18.190Z,83.50
2018-02-15T21:46:45.625Z,81.22
2018-02-15T21:49:13.834Z,86.07
2018-02-15T21:51:41.281Z,82.65
2018-02-15T21:54:08.717Z,89.10
2018-02-15T21:56:36.929Z,87.53
2018-02-15T21:59:04.367Z,82.07
2018-02-15T22:01:31.814Z,83.30
2018-02-15T22:03:59.229Z,86.20
2018-02-15T22:06:26.679Z,85.62
2018-02-15T22:08:54.102Z,85.57
2018-02-15T22:11:21.574Z,79.55
2018-02-15T22:13:49.014Z,83.35
2018-02-15T22:16:16.458Z,86.10
2018-02-15T22:18:43.877Z,82.47
2018-02-15T22:21:12.303Z,79.40
2018-02-15T22:23:39.728Z,79.43
2018-02-15T22:26:07.160Z,85.62
2018-02-15T22:28:34.610Z,81.03
2018-02-15T22:31:02.063Z,74.55
2018-02-15T22:33:29.512Z,78.28
2018-02-15T22:35:56.951Z,89.85
2018-02-15T22:38:24.393Z,80.82
2018-02-15T22:40:51.842Z,83.87
2018-02-15T22:43:19.301Z,83.05
2018-02-15T22:45:46.757Z,89.87
2018-02-15T22:48:14.194Z,87.90
2018-02-15T22:50:41.641Z,85.15
2018-02-15T22:53:09.839Z,83.05
2018-02-15T22:55:37.269Z,88.77
2018-02-15T22:58:05.473Z,85.70
2018-02-15T23:00:32.910Z,86.82
2018-02-15T23:03:00.359Z,79.07
2018-02-15T23:05:28.613Z,82.55
2018-02-15T23:07:56.051Z,80.82
2018-02-15T23:10:23.486Z,82.50
2018-02-15T23:12:50.918Z,72.80
2018-02-15T23:15:18.449Z,73.15
2018-02-15T23:17:45.881Z,69.47
2018-02-15T23:20:13.298Z,53.92
2018-02-15T23:22:40.741Z,54.08
2018-02-15T23:25:08.170Z,52.33
2018-02-15T23:27:35.613Z,55.08
2018-02-15T23:30:03.063Z,47.10
2018-02-15T23:32:30.497Z,40.47
2018-02-15T23:34:57.921Z,39.72
2018-02-15T23:37:25.356Z,40.28
2018-02-15T23:39:53.564Z,37.65
2018-02-15T23:42:21.081Z,36.42
2018-02-15T23:44:48.526Z,31.60
2018-02-15T23:47:15.969Z,35.45
2018-02-15T23:49:43.410Z,28.75
2018-02-15T23:52:10.853Z,30.77
2018-02-15T23:54:38.285Z,28.52
2018-02-15T23:57:05.741Z,28.55
2018-02-15T23:59:33.182Z,29.12
